createdAt,value
2022-10-21T00:00:25.788Z,86.98
2022-10-21T00:02:28.400Z,86.81
2022-10-21T00:04:31.036Z,86.70
2022-10-21T00:06:35.029Z,86.57
2022-10-21T00:08:39.125Z,85.95
2022-10-21T00:10:41.899Z,85.93
2022-10-21T00:12:44.494Z,85.85
2022-10-21T00:14:53.602Z,85.99
2022-10-21T00:16:59.949Z,85.97
2022-10-21T00:19:02.567Z,86.01
2022-10-21T00:21:10.674Z,86.11
2022-10-21T00:23:14.589Z,86.45
2022-10-21T00:25:17.422Z,86.36
2022-10-21T00:27:20.069Z,86.86
2022-10-21T00:29:22.763Z,87.04
2022-10-21T00:31:26.162Z,87.11
2022-10-21T00:33:29.473Z,86.92
2022-10-21T00:35:34.618Z,86.96
2022-10-21T00:37:37.552Z,86.97
2022-10-21T00:39:42.029Z,86.94
2022-10-21T00:41:44.600Z,86.64
2022-10-21T00:43:59.224Z,86.33
2022-10-21T00:46:06.478Z,86.97
2022-10-21T00:48:15.904Z,85.74
2022-10-21T00:50:27.070Z,85.36
2022-10-21T00:52:32.072Z,85.00
2022-10-21T00:54:36.525Z,85.48
2022-10-21T00:56:45.145Z,86.25
2022-10-21T00:58:49.258Z,86.52
2022-10-21T01:00:55.623Z,87.19
2022-10-21T01:02:59.002Z,87.54
2022-10-21T01:05:04.109Z,86.78
2022-10-21T01:07:06.824Z,87.12
2022-10-21T01:09:09.651Z,87.24
2022-10-21T01:11:15.376Z,87.22
2022-10-21T01:13:26.787Z,87.49
2022-10-21T01:15:37.536Z,87.16
2022-10-21T01:17:50.109Z,86.34
2022-10-21T01:20:26.860Z,86.94
2022-10-21T01:22:47.377Z,87.72
2022-10-21T01:25:04.341Z,88.43
2022-10-21T01:27:18.826Z,88.50
2022-10-21T01:29:43.347Z,88.42
2022-10-21T01:31:55.738Z,88.25
2022-10-21T01:34:04.399Z,87.89
2022-10-21T01:36:20.682Z,87.82
2022-10-21T01:38:29.382Z,88.30
2022-10-21T01:40:37.191Z,88.41
2022-10-21T01:42:44.353Z,88.41
2022-10-21T01:44:54.307Z,88.35
2022-10-21T01:47:02.247Z,88.11
2022-10-21T01:49:12.237Z,88.19
2022-10-21T01:51:17.770Z,88.30
2022-10-21T01:53:24.902Z,87.46
2022-10-21T01:55:31.870Z,86.83
2022-10-21T01:57:38.786Z,88.16
2022-10-21T01:59:43.597Z,88.98
2022-10-21T02:01:48.384Z,88.56
2022-10-21T02:03:57.114Z,88.64
2022-10-21T02:06:00.234Z,87.77
2022-10-21T02:08:03.185Z,88.44
2022-10-21T02:10:06.514Z,88.90
2022-10-21T02:12:10.495Z,89.19
2022-10-21T02:14:17.500Z,89.59
2022-10-21T02:16:25.040Z,89.33
2022-10-21T02:18:28.675Z,89.50
2022-10-21T02:20:36.216Z,89.69
2022-10-21T02:22:41.150Z,89.51
2022-10-21T02:24:51.175Z,89.77
2022-10-21T02:26:54.170Z,89.66
2022-10-21T02:28:59.444Z,89.95
2022-10-21T02:31:15.485Z,90.06
2022-10-21T02:33:23.728Z,89.67
2022-10-21T02:35:37.704Z,89.49
2022-10-21T02:37:44.252Z,89.74
2022-10-21T02:39:52.787Z,89.95
2022-10-21T02:41:57.365Z,90.31
2022-10-21T02:44:02.459Z,89.96
2022-10-21T02:46:08.911Z,88.69
2022-10-21T02:48:11.585Z,88.34
2022-10-21T02:50:14.417Z,88.15
2022-10-21T02:52:18.464Z,88.22
2022-10-21T02:54:21.284Z,86.90
2022-10-21T02:56:23.883Z,87.96
2022-10-21T02:58:27.241Z,88.96
2022-10-21T03:00:32.744Z,89.26
2022-10-21T03:02:35.900Z,89.41
2022-10-21T03:04:38.465Z,89.63
2022-10-21T03:06:41.032Z,90.16
2022-10-21T03:08:45.032Z,90.21
2022-10-21T03:10:52.985Z,90.45
2022-10-21T03:12:56.230Z,90.51
2022-10-21T03:14:58.825Z,90.70
2022-10-21T03:17:01.400Z,90.82
2022-10-21T03:19:04.006Z,91.09
2022-10-21T03:21:08.967Z,90.66
2022-10-21T03:23:11.690Z,90.65
2022-10-21T03:25:15.660Z,90.96
2022-10-21T03:27:18.339Z,91.09
2022-10-21T03:29:20.943Z,91.14
2022-10-21T03:31:26.712Z,90.82
2022-10-21T03:33:29.264Z,91.03
2022-10-21T03:35:31.904Z,91.10
2022-10-21T03:37:34.509Z,90.88
2022-10-21T03:39:37.110Z,91.04
2022-10-21T03:41:41.341Z,91.23
2022-10-21T03:43:43.911Z,91.24
2022-10-21T03:45:47.910Z,91.31
2022-10-21T03:47:50.499Z,91.04
2022-10-21T03:49:53.120Z,91.32
2022-10-21T03:51:55.682Z,91.18
2022-10-21T03:53:58.241Z,91.12
2022-10-21T03:56:00.777Z,90.71
2022-10-21T03:58:04.773Z,91.19
2022-10-21T04:00:08.778Z,91.31
2022-10-21T04:02:11.394Z,91.31
2022-10-21T04:04:14.026Z,91.50
2022-10-21T04:06:16.596Z,91.52
2022-10-21T04:08:19.191Z,91.21
2022-10-21T04:10:21.931Z,90.83
2022-10-21T04:12:24.776Z,91.25
2022-10-21T04:14:28.683Z,91.74
2022-10-21T04:16:33.329Z,91.86
2022-10-21T04:18:35.964Z,91.80
2022-10-21T04:20:38.574Z,91.73
2022-10-21T04:22:41.443Z,91.99
2022-10-21T04:24:44.136Z,91.77
2022-10-21T04:26:46.712Z,92.09
2022-10-21T04:28:49.266Z,92.09
2022-10-21T04:30:53.683Z,92.30
2022-10-21T04:32:56.244Z,92.28
2022-10-21T04:34:58.855Z,92.24
2022-10-21T04:37:04.200Z,92.47
2022-10-21T04:39:08.035Z,92.47
2022-10-21T04:41:10.596Z,92.63
2022-10-21T04:43:13.155Z,92.56
2022-10-21T04:45:16.120Z,92.54
2022-10-21T04:47:20.113Z,92.45
2022-10-21T04:49:22.791Z,92.33
2022-10-21T04:51:25.538Z,92.44
2022-10-21T04:53:28.153Z,92.61
2022-10-21T04:55:30.809Z,92.58
2022-10-21T04:57:33.441Z,92.76
2022-10-21T04:59:36.089Z,92.56
2022-10-21T05:01:38.687Z,92.75
2022-10-21T05:03:42.650Z,92.65
2022-10-21T05:05:45.220Z,92.42
2022-10-21T05:07:47.825Z,92.56
2022-10-21T05:09:50.380Z,92.51
2022-10-21T05:11:52.924Z,92.24
2022-10-21T05:13:55.527Z,92.22
2022-10-21T05:16:02.026Z,92.19
2022-10-21T05:18:04.850Z,92.44
2022-10-21T05:20:10.132Z,92.62
2022-10-21T05:22:12.815Z,92.76
2022-10-21T05:24:15.412Z,92.80
2022-10-21T05:26:18.018Z,93.07
2022-10-21T05:28:21.209Z,93.05
2022-10-21T05:30:23.792Z,93.27
2022-10-21T05:32:26.715Z,93.16
2022-10-21T05:34:29.307Z,92.80
2022-10-21T05:36:33.261Z,93.01
2022-10-21T05:38:36.413Z,93.13
2022-10-21T05:40:41.155Z,93.11
2022-10-21T05:42:43.675Z,93.12
2022-10-21T05:44:46.303Z,93.28
2022-10-21T05:46:48.907Z,93.41
2022-10-21T05:48:51.465Z,93.39
2022-10-21T05:50:55.555Z,93.74
2022-10-21T05:52:59.496Z,94.13
2022-10-21T05:55:02.069Z,94.36
2022-10-21T05:57:04.743Z,94.30
2022-10-21T05:59:10.043Z,94.61
2022-10-21T06:01:13.053Z,95.11
2022-10-21T06:03:15.649Z,95.18
2022-10-21T06:05:18.508Z,95.36
2022-10-21T06:07:21.088Z,95.36
2022-10-21T06:09:25.186Z,95.50
2022-10-21T06:11:27.833Z,95.51
2022-10-21T06:13:30.648Z,95.47
2022-10-21T06:15:33.276Z,95.57
2022-10-21T06:17:36.118Z,95.76
2022-10-21T06:19:38.871Z,95.94
2022-10-21T06:21:41.432Z,95.79
2022-10-21T06:23:44.113Z,95.66
2022-10-21T06:25:57.229Z,95.78
2022-10-21T06:27:59.769Z,95.74
2022-10-21T06:30:02.460Z,95.92
2022-10-21T06:32:05.383Z,95.85
2022-10-21T06:34:08.117Z,95.88
2022-10-21T06:36:11.028Z,95.82
2022-10-21T06:38:13.761Z,95.91
2022-10-21T06:40:16.359Z,96.06
2022-10-21T06:42:20.494Z,96.14
2022-10-21T06:44:23.069Z,96.19
2022-10-21T06:46:26.130Z,96.39
2022-10-21T06:48:28.824Z,96.43
2022-10-21T06:50:31.639Z,96.35
2022-10-21T06:52:34.330Z,96.56
2022-10-21T06:54:36.934Z,96.59
2022-10-21T06:56:40.303Z,96.51
2022-10-21T06:58:46.453Z,96.45
2022-10-21T07:00:49.053Z,96.60
2022-10-21T07:02:51.643Z,96.39
2022-10-21T07:04:54.206Z,96.30
2022-10-21T07:06:56.875Z,96.17
2022-10-21T07:08:59.723Z,96.36
2022-10-21T07:11:02.975Z,96.30
2022-10-21T07:13:05.609Z,96.51
2022-10-21T07:15:10.392Z,96.42
2022-10-21T07:17:12.977Z,96.21
2022-10-21T07:19:15.684Z,95.98
2022-10-21T07:21:20.060Z,96.18
2022-10-21T07:23:23.020Z,96.14
2022-10-21T07:25:25.560Z,95.91
2022-10-21T07:27:28.160Z,95.56
2022-10-21T07:29:30.738Z,95.86
2022-10-21T07:31:37.633Z,96.00
2022-10-21T07:33:40.217Z,95.03
2022-10-21T07:35:42.823Z,95.52
2022-10-21T07:37:45.371Z,93.99
2022-10-21T07:39:48.018Z,94.01
2022-10-21T07:41:53.423Z,93.17
2022-10-21T07:43:56.210Z,93.66
2022-10-21T07:46:05.993Z,92.70
2022-10-21T07:48:11.517Z,91.66
2022-10-21T07:50:14.912Z,92.29
2022-10-21T07:52:17.489Z,92.91
2022-10-21T07:54:20.883Z,92.98
2022-10-21T07:56:25.648Z,93.09
2022-10-21T07:58:28.214Z,93.37
2022-10-21T08:00:30.782Z,93.45
2022-10-21T08:02:33.620Z,93.23
2022-10-21T08:04:37.579Z,93.43
2022-10-21T08:06:40.439Z,93.49
2022-10-21T08:08:43.248Z,93.83
2022-10-21T08:10:46.084Z,94.13
2022-10-21T08:12:48.774Z,93.13
2022-10-21T08:14:51.416Z,93.46
2022-10-21T08:16:54.356Z,93.71
2022-10-21T08:18:57.136Z,93.76
2022-10-21T08:21:03.745Z,93.90
2022-10-21T08:23:06.642Z,93.64
2022-10-21T08:25:11.689Z,93.62
2022-10-21T08:27:14.426Z,91.89
2022-10-21T08:29:17.028Z,92.36
2022-10-21T08:31:21.551Z,92.82
2022-10-21T08:33:24.176Z,92.81
2022-10-21T08:35:26.820Z,92.79
2022-10-21T08:37:32.036Z,93.19
2022-10-21T08:39:35.413Z,93.08
2022-10-21T08:41:58.949Z,92.91
2022-10-21T08:44:06.079Z,93.07
2022-10-21T08:46:12.786Z,93.15
2022-10-21T08:48:19.824Z,93.07
2022-10-21T08:50:25.859Z,93.31
2022-10-21T08:52:39.493Z,93.17
2022-10-21T08:54:47.765Z,93.04
2022-10-21T08:56:56.389Z,92.54
2022-10-21T08:58:59.283Z,93.10
2022-10-21T09:01:05.873Z,92.52
2022-10-21T09:03:19.324Z,91.28
2022-10-21T09:05:39.931Z,90.08
2022-10-21T09:07:53.639Z,89.90
2022-10-21T09:10:00.013Z,88.55
2022-10-21T09:12:12.749Z,87.84
2022-10-21T09:14:40.021Z,87.76
2022-10-21T09:16:50.442Z,87.97
2022-10-21T09:19:06.941Z,87.98
2022-10-21T09:21:18.811Z,87.57
2022-10-21T09:23:45.752Z,88.38
2022-10-21T09:25:53.364Z,89.01
2022-10-21T09:27:57.581Z,89.99
2022-10-21T09:30:02.991Z,90.56
2022-10-21T09:32:15.618Z,89.82
2022-10-21T09:34:23.582Z,90.54
2022-10-21T09:36:35.159Z,90.39
2022-10-21T09:38:44.471Z,90.95
2022-10-21T09:40:49.351Z,91.73
2022-10-21T09:42:55.860Z,90.48
2022-10-21T09:44:58.595Z,91.29
2022-10-21T09:47:01.221Z,90.94
2022-10-21T09:49:36.714Z,90.55
2022-10-21T09:51:30.916Z,90.69
2022-10-21T09:53:38.397Z,90.94
2022-10-21T09:55:45.177Z,90.10
2022-10-21T09:57:54.901Z,88.46
2022-10-21T10:00:01.079Z,87.89
2022-10-21T10:02:08.117Z,88.21
2022-10-21T10:04:12.361Z,87.98
2022-10-21T10:06:30.464Z,87.76
2022-10-21T10:08:37.608Z,87.59
2022-10-21T10:10:40.305Z,86.69
2022-10-21T10:12:56.946Z,86.55
2022-10-21T10:15:26.937Z,87.08
2022-10-21T10:17:35.573Z,87.42
2022-10-21T10:19:38.194Z,87.03
2022-10-21T10:21:40.789Z,87.32
2022-10-21T10:23:45.838Z,87.20
2022-10-21T10:25:53.299Z,87.22
2022-10-21T10:27:59.611Z,86.93
2022-10-21T10:30:02.914Z,87.01
2022-10-21T10:32:13.830Z,86.64
2022-10-21T10:34:25.063Z,85.72
2022-10-21T10:36:32.017Z,80.38
2022-10-21T10:38:36.884Z,80.89
2022-10-21T10:40:43.495Z,81.70
2022-10-21T10:42:46.877Z,82.32
2022-10-21T10:44:54.654Z,82.75
2022-10-21T10:46:59.296Z,81.77
2022-10-21T10:49:07.699Z,81.66
2022-10-21T10:51:26.064Z,81.15
2022-10-21T10:53:31.990Z,81.87
2022-10-21T10:55:35.232Z,81.96
2022-10-21T10:57:44.589Z,79.94
2022-10-21T11:00:07.120Z,78.80
2022-10-21T11:02:23.247Z,78.73
2022-10-21T11:04:33.469Z,78.70
2022-10-21T11:06:43.363Z,78.88
2022-10-21T11:08:51.240Z,79.63
2022-10-21T11:10:58.197Z,79.73
2022-10-21T11:13:02.209Z,79.49
2022-10-21T11:15:14.628Z,79.03
2022-10-21T11:17:20.268Z,79.19
2022-10-21T11:19:30.108Z,78.41
2022-10-21T11:21:43.970Z,78.26
2022-10-21T11:24:07.615Z,78.13
2022-10-21T11:26:20.608Z,79.17
2022-10-21T11:28:29.723Z,79.82
2022-10-21T11:30:44.250Z,80.25
2022-10-21T11:33:00.040Z,80.52
2022-10-21T11:35:17.724Z,79.95
2022-10-21T11:37:28.860Z,78.80
2022-10-21T11:39:40.553Z,79.38
2022-10-21T11:41:45.659Z,79.80
2022-10-21T11:43:56.832Z,79.90
2022-10-21T11:46:05.924Z,80.80
2022-10-21T11:48:21.025Z,80.34
2022-10-21T11:50:30.535Z,80.43
2022-10-21T11:52:42.471Z,77.85
2022-10-21T11:55:09.846Z,77.75
2022-10-21T11:57:18.080Z,77.85
2022-10-21T11:59:36.645Z,78.27
2022-10-21T12:01:48.644Z,79.50
2022-10-21T12:04:11.476Z,79.71
2022-10-21T12:06:27.447Z,79.40
2022-10-21T12:08:39.695Z,79.53
2022-10-21T12:10:50.624Z,78.73
2022-10-21T12:12:57.403Z,78.35
2022-10-21T12:15:02.477Z,77.16
2022-10-21T12:17:11.622Z,77.78
2022-10-21T12:19:15.227Z,77.05
2022-10-21T12:21:24.386Z,76.51
2022-10-21T12:23:30.360Z,76.60
2022-10-21T12:25:43.508Z,75.79
2022-10-21T12:27:55.241Z,75.41
2022-10-21T12:30:02.213Z,75.00
2022-10-21T12:32:19.623Z,75.89
2022-10-21T12:34:23.292Z,75.87
2022-10-21T12:36:42.237Z,74.66
2022-10-21T12:38:47.968Z,74.81
2022-10-21T12:40:51.575Z,75.69
2022-10-21T12:43:00.446Z,76.46
2022-10-21T12:45:03.577Z,76.11
2022-10-21T12:47:25.906Z,77.58
2022-10-21T12:49:32.445Z,77.67
2022-10-21T12:51:36.655Z,77.41
2022-10-21T12:53:42.466Z,75.08
2022-10-21T12:55:51.033Z,75.93
2022-10-21T12:58:01.388Z,76.86
2022-10-21T13:00:41.425Z,75.40
2022-10-21T13:03:03.637Z,75.06
2022-10-21T13:05:06.756Z,75.90
2022-10-21T13:07:30.047Z,76.78
2022-10-21T13:09:35.501Z,76.61
2022-10-21T13:11:40.038Z,76.91
2022-10-21T13:13:43.617Z,76.10
2022-10-21T13:15:48.260Z,76.88
2022-10-21T13:17:53.351Z,76.42
2022-10-21T13:20:18.570Z,77.13
2022-10-21T13:22:23.593Z,77.84
2022-10-21T13:24:27.991Z,76.00
2022-10-21T13:26:31.068Z,75.92
2022-10-21T13:28:34.929Z,76.13
2022-10-21T13:30:38.994Z,76.29
2022-10-21T13:32:42.623Z,77.18
2022-10-21T13:34:58.718Z,75.66
2022-10-21T13:37:01.397Z,76.37
2022-10-21T13:39:09.495Z,76.39
2022-10-21T13:41:22.749Z,76.38
2022-10-21T13:43:28.821Z,75.11
2022-10-21T13:45:35.763Z,76.15
2022-10-21T13:47:38.701Z,75.64
2022-10-21T13:49:43.087Z,76.34
2022-10-21T13:51:47.856Z,76.18
2022-10-21T13:53:53.953Z,77.07
2022-10-21T13:55:58.932Z,77.22
2022-10-21T13:58:01.490Z,77.89
2022-10-21T14:00:08.065Z,78.48
2022-10-21T14:02:24.179Z,79.23
2022-10-21T14:04:28.555Z,80.01
2022-10-21T14:06:36.186Z,80.42
2022-10-21T14:08:43.361Z,78.31
2022-10-21T14:10:48.333Z,78.87
2022-10-21T14:12:51.747Z,79.77
2022-10-21T14:14:56.875Z,80.00
2022-10-21T14:17:02.767Z,79.61
2022-10-21T14:19:09.232Z,79.78
2022-10-21T14:21:18.668Z,80.26
2022-10-21T14:23:24.208Z,78.83
2022-10-21T14:25:28.579Z,78.80
2022-10-21T14:27:33.163Z,78.99
2022-10-21T14:29:37.047Z,78.90
2022-10-21T14:31:42.988Z,79.70
2022-10-21T14:33:49.646Z,80.59
2022-10-21T14:36:10.671Z,81.46
2022-10-21T14:38:26.523Z,81.19
2022-10-21T14:40:34.062Z,81.37
2022-10-21T14:42:36.971Z,81.28
2022-10-21T14:44:42.598Z,81.51
2022-10-21T14:46:47.600Z,81.79
2022-10-21T14:48:54.024Z,81.59
2022-10-21T14:51:01.267Z,81.80
2022-10-21T14:53:04.330Z,81.51
2022-10-21T14:55:10.588Z,81.58
2022-10-21T14:57:30.688Z,82.08
2022-10-21T14:59:40.208Z,82.46
2022-10-21T15:01:43.941Z,82.27
2022-10-21T15:03:48.505Z,81.14
2022-10-21T15:05:51.206Z,80.76
2022-10-21T15:08:32.396Z,80.34
2022-10-21T15:10:35.256Z,80.55
2022-10-21T15:12:44.567Z,81.28
2022-10-21T15:14:47.163Z,81.48
2022-10-21T15:16:53.468Z,81.75
2022-10-21T15:18:56.277Z,82.07
2022-10-21T15:21:02.280Z,81.89
2022-10-21T15:23:05.174Z,82.14
2022-10-21T15:25:10.076Z,80.23
2022-10-21T15:27:18.657Z,80.53
2022-10-21T15:29:29.400Z,78.85
2022-10-21T15:31:32.037Z,77.31
2022-10-21T15:33:34.585Z,77.70
2022-10-21T15:35:37.117Z,77.73
2022-10-21T15:37:39.847Z,78.54
2022-10-21T15:39:45.321Z,78.82
2022-10-21T15:41:53.592Z,79.15
2022-10-21T15:44:00.629Z,79.77
2022-10-21T15:46:04.618Z,79.96
2022-10-21T15:48:10.347Z,78.85
2022-10-21T15:50:16.436Z,78.63
2022-10-21T15:52:19.117Z,78.81
2022-10-21T15:54:22.130Z,79.15
2022-10-21T15:56:24.774Z,78.98
2022-10-21T15:58:27.560Z,79.41
2022-10-21T16:00:30.152Z,79.98
2022-10-21T16:02:39.365Z,80.34
2022-10-21T16:04:42.892Z,80.29
2022-10-21T16:06:48.086Z,78.55
2022-10-21T16:08:53.049Z,78.37
2022-10-21T16:10:55.837Z,79.37
2022-10-21T16:12:59.324Z,80.28
2022-10-21T16:15:01.880Z,80.33
2022-10-21T16:17:04.619Z,80.76
2022-10-21T16:19:09.906Z,79.78
2022-10-21T16:21:13.443Z,79.50
2022-10-21T16:23:16.072Z,79.01
2022-10-21T16:25:19.585Z,79.74
2022-10-21T16:27:31.345Z,80.31
2022-10-21T16:29:40.050Z,80.04
2022-10-21T16:31:42.700Z,80.67
2022-10-21T16:33:46.080Z,79.32
2022-10-21T16:35:49.987Z,79.32
2022-10-21T16:37:53.149Z,78.92
2022-10-21T16:39:55.756Z,78.56
2022-10-21T16:41:58.275Z,77.48
2022-10-21T16:44:01.001Z,76.91
2022-10-21T16:46:03.620Z,77.26
2022-10-21T16:48:06.477Z,76.94
2022-10-21T16:50:18.436Z,77.63
2022-10-21T16:52:22.482Z,77.06
2022-10-21T16:54:25.067Z,77.31
2022-10-21T16:58:35.842Z,76.70
2022-10-21T17:00:38.586Z,77.15
2022-10-21T17:02:41.328Z,77.03
2022-10-21T17:04:44.016Z,77.79
2022-10-21T17:06:46.559Z,77.60
2022-10-21T17:08:52.215Z,78.49
2022-10-21T17:10:54.852Z,79.16
2022-10-21T17:12:59.153Z,79.56
2022-10-21T17:15:02.484Z,78.92
2022-10-21T17:17:05.063Z,79.28
2022-10-21T17:19:08.356Z,80.05
2022-10-21T17:21:20.314Z,80.37
2022-10-21T17:23:25.129Z,79.76
2022-10-21T17:25:30.519Z,79.98
2022-10-21T17:27:33.064Z,80.47
2022-10-21T17:29:36.101Z,80.58
2022-10-21T17:31:40.377Z,80.65
2022-10-21T17:33:43.445Z,80.19
2022-10-21T17:35:46.023Z,80.08
2022-10-21T17:37:49.704Z,80.01
2022-10-21T17:39:52.290Z,79.95
2022-10-21T17:41:56.461Z,79.76
2022-10-21T17:44:01.704Z,79.86
2022-10-21T17:46:04.515Z,80.06
2022-10-21T17:48:07.524Z,80.08
2022-10-21T17:50:11.430Z,80.19
2022-10-21T17:52:14.012Z,79.62
2022-10-21T17:54:17.102Z,79.26
2022-10-21T17:56:20.453Z,78.73
2022-10-21T17:58:24.458Z,78.32
2022-10-21T18:00:27.043Z,78.56
2022-10-21T18:02:33.308Z,78.36
2022-10-21T18:04:35.892Z,78.52
2022-10-21T18:06:39.776Z,78.74
2022-10-21T18:08:43.458Z,78.84
2022-10-21T18:10:53.009Z,79.45
2022-10-21T18:12:55.563Z,79.77
2022-10-21T18:14:59.542Z,80.20
2022-10-21T18:17:02.114Z,80.17
2022-10-21T18:19:04.725Z,80.43
2022-10-21T18:21:10.185Z,80.16
2022-10-21T18:23:13.395Z,79.84
2022-10-21T18:25:16.462Z,79.61
2022-10-21T18:27:19.124Z,79.43
2022-10-21T18:29:22.184Z,79.87
2022-10-21T18:31:28.126Z,80.13
2022-10-21T18:33:30.966Z,80.08
2022-10-21T18:35:33.533Z,79.99
2022-10-21T18:37:36.392Z,80.05
2022-10-21T18:39:38.991Z,80.24
2022-10-21T18:41:42.045Z,80.33
2022-10-21T18:43:48.044Z,80.23
2022-10-21T18:45:50.599Z,80.19
2022-10-21T18:47:55.559Z,79.89
2022-10-21T18:49:58.125Z,79.93
2022-10-21T18:52:00.688Z,79.50
2022-10-21T18:54:03.284Z,79.03
2022-10-21T18:56:06.745Z,78.38
2022-10-21T18:58:09.345Z,77.81
2022-10-21T19:00:12.437Z,78.11
2022-10-21T19:02:21.128Z,76.61
2022-10-21T19:04:25.491Z,76.67
2022-10-21T19:06:36.735Z,76.76
2022-10-21T19:08:39.556Z,77.58
2022-10-21T19:10:43.031Z,78.16
2022-10-21T19:12:45.675Z,78.15
2022-10-21T19:14:48.214Z,78.06
2022-10-21T19:16:50.856Z,78.27
2022-10-21T19:18:54.729Z,77.16
2022-10-21T19:20:58.785Z,77.07
2022-10-21T19:23:01.434Z,76.54
2022-10-21T19:25:04.254Z,76.80
2022-10-21T19:27:06.833Z,77.04
2022-10-21T19:29:13.209Z,77.31
2022-10-21T19:31:16.878Z,77.75
2022-10-21T19:33:19.451Z,78.50
2022-10-21T19:35:21.994Z,79.60
2022-10-21T19:37:25.910Z,79.60
2022-10-21T19:39:28.572Z,79.55
2022-10-21T19:41:31.143Z,79.52
2022-10-21T19:43:33.787Z,79.28
2022-10-21T19:45:37.141Z,79.39
2022-10-21T19:47:39.678Z,79.78
2022-10-21T19:49:42.280Z,80.21
2022-10-21T19:51:45.002Z,80.34
2022-10-21T19:53:50.123Z,80.28
2022-10-21T19:55:52.731Z,79.93
2022-10-21T19:57:55.272Z,78.99
2022-10-21T19:59:57.869Z,77.21
2022-10-21T20:02:00.427Z,77.40
2022-10-21T20:04:04.173Z,78.10
2022-10-21T20:06:09.683Z,78.68
2022-10-21T20:08:12.245Z,78.68
2022-10-21T20:10:18.327Z,79.20
2022-10-21T20:12:20.976Z,79.67
2022-10-21T20:14:23.520Z,79.56
2022-10-21T20:16:28.364Z,79.38
2022-10-21T20:18:31.652Z,78.00
2022-10-21T20:20:34.221Z,77.63
2022-10-21T20:22:36.810Z,78.29
2022-10-21T20:24:42.076Z,77.71
2022-10-21T20:26:51.335Z,78.08
2022-10-21T20:28:53.911Z,78.08
2022-10-21T20:30:57.987Z,78.87
2022-10-21T20:33:00.569Z,79.73
2022-10-21T20:35:03.244Z,79.50
2022-10-21T20:37:05.835Z,79.93
2022-10-21T20:39:10.241Z,80.62
2022-10-21T20:41:15.401Z,80.22
2022-10-21T20:43:19.334Z,81.37
2022-10-21T20:45:21.922Z,81.83
2022-10-21T20:47:26.428Z,82.36
2022-10-21T20:49:31.530Z,82.97
2022-10-21T20:51:34.956Z,83.59
2022-10-21T20:53:40.034Z,83.92
2022-10-21T20:55:43.728Z,84.54
2022-10-21T20:57:46.411Z,84.60
2022-10-21T20:59:50.379Z,84.24
2022-10-21T21:01:53.052Z,84.16
2022-10-21T21:03:57.329Z,83.11
2022-10-21T21:06:02.138Z,82.56
2022-10-21T21:08:05.000Z,82.97
2022-10-21T21:10:08.523Z,83.16
2022-10-21T21:12:11.135Z,84.39
2022-10-21T21:14:13.761Z,85.27
2022-10-21T21:16:20.359Z,84.92
2022-10-21T21:18:22.934Z,84.06
2022-10-21T21:20:25.521Z,84.20
2022-10-21T21:22:30.975Z,85.12
2022-10-21T21:24:33.836Z,84.77
2022-10-21T21:26:38.465Z,85.49
2022-10-21T21:28:41.809Z,85.55
2022-10-21T21:30:52.109Z,86.52
2022-10-21T21:32:56.050Z,85.35
2022-10-21T21:35:02.216Z,85.68
2022-10-21T21:37:07.661Z,85.73
2022-10-21T21:39:11.483Z,86.46
2022-10-21T21:41:16.474Z,86.58
2022-10-21T21:43:19.168Z,86.62
2022-10-21T21:45:21.755Z,87.08
2022-10-21T21:47:24.339Z,86.93
2022-10-21T21:49:28.279Z,87.52
2022-10-21T21:51:31.507Z,87.38
2022-10-21T21:53:34.172Z,87.97
2022-10-21T21:55:36.912Z,86.62
2022-10-21T21:57:39.482Z,87.14
2022-10-21T21:59:42.105Z,86.44
2022-10-21T22:01:44.720Z,86.67
2022-10-21T22:03:49.142Z,86.51
2022-10-21T22:05:53.052Z,86.81
2022-10-21T22:07:55.641Z,86.43
2022-10-21T22:09:58.200Z,86.79
2022-10-21T22:12:00.786Z,87.53
2022-10-21T22:14:03.554Z,86.49
2022-10-21T22:16:06.768Z,86.41
2022-10-21T22:18:10.186Z,85.73
2022-10-21T22:20:13.405Z,85.83
2022-10-21T22:22:17.658Z,86.01
2022-10-21T22:24:20.288Z,86.55
2022-10-21T22:26:26.470Z,85.84
2022-10-21T22:28:32.096Z,85.51
2022-10-21T22:30:34.632Z,84.85
2022-10-21T22:32:37.676Z,84.79
2022-10-21T22:34:40.316Z,85.25
2022-10-21T22:36:42.952Z,86.04
2022-10-21T22:38:46.884Z,86.15
2022-10-21T22:40:53.811Z,85.42
2022-10-21T22:42:56.370Z,85.79
2022-10-21T22:44:58.978Z,85.46
2022-10-21T22:47:01.557Z,85.66
2022-10-21T22:49:04.966Z,84.94
2022-10-21T22:51:07.661Z,85.78
2022-10-21T22:53:10.483Z,85.75
2022-10-21T22:55:14.562Z,85.35
2022-10-21T22:57:17.363Z,84.57
2022-10-21T22:59:19.935Z,83.49
2022-10-21T23:01:28.961Z,83.79
2022-10-21T23:03:31.716Z,84.03
2022-10-21T23:05:34.341Z,83.79
2022-10-21T23:07:36.905Z,83.49
2022-10-21T23:09:39.516Z,83.62
2022-10-21T23:11:43.519Z,84.62
2022-10-21T23:13:56.337Z,84.67
2022-10-21T23:16:06.972Z,84.13
2022-10-21T23:18:09.859Z,82.54
2022-10-21T23:20:13.022Z,82.91
2022-10-21T23:22:15.642Z,83.66
2022-10-21T23:24:18.242Z,83.30
2022-10-21T23:26:22.295Z,84.13
2022-10-21T23:28:26.350Z,83.62
2022-10-21T23:30:29.101Z,83.31
2022-10-21T23:32:31.695Z,84.02
2022-10-21T23:34:34.294Z,84.83
2022-10-21T23:36:37.204Z,85.06
2022-10-21T23:38:39.775Z,84.35
2022-10-21T23:40:42.517Z,83.34
2022-10-21T23:42:45.121Z,83.83
2022-10-21T23:44:49.028Z,84.03
2022-10-21T23:46:51.629Z,84.80
2022-10-21T23:48:54.268Z,84.98
2022-10-21T23:50:57.169Z,83.72
2022-10-21T23:52:59.770Z,83.77
2022-10-21T23:55:02.372Z,83.83
2022-10-21T23:57:05.191Z,84.02
2022-10-21T23:59:07.814Z,84.17
